NCAR-RAP Real-Time Weather Data

Output produced by METARs form (27 May 2017  08:19 UTC)
found at http://weather.rap.ucar.edu/surface/
 
Conditions at: KLOU observed 27 May 2017  07:53 UTC
Temperature: 23.3°C (74°F)
Dewpoint: 18.9°C (66°F) [RH = 76%]
Pressure (altimeter): 29.85 inches Hg (1010.9 mb)
[Sea-level pressure: 1010.3 mb]
Winds: from the WSW (240 degrees) at 7 MPH (6 knots; 3.1 m/s)
Visibility: 10 or more miles (16+ km)
Ceiling: 4700 feet AGL
Clouds: scattered clouds at 2400 feet AGL
broken clouds at 4700 feet AGL
Present Weather: automated observation with no human augmentation;
there may or may not be significant weather present at this time
KLOU 270753Z AUTO 24006KT 10SM SCT024 BKN047 23/19 A2985 RMK AO2 SLP103 T02330189